createdAt,value
2019-03-05T00:04:14.150Z,992.80
2019-03-05T00:09:09.825Z,992.98
2019-03-05T00:14:06.560Z,992.83
2019-03-05T00:19:03.318Z,993.05
2019-03-05T00:23:58.712Z,992.97
2019-03-05T00:28:54.369Z,993.11
2019-03-05T00:33:50.965Z,993.19
2019-03-05T00:38:47.042Z,993.17
2019-03-05T00:43:42.978Z,993.29
2019-03-05T00:48:38.484Z,993.40
2019-03-05T00:53:34.066Z,993.32
2019-03-05T00:58:29.724Z,993.31
2019-03-05T01:03:25.291Z,993.38
2019-03-05T01:08:21.059Z,993.46
2019-03-05T01:13:16.856Z,993.55
2019-03-05T01:18:12.734Z,993.58
2019-03-05T01:23:08.430Z,993.69
2019-03-05T01:28:04.296Z,993.72
2019-03-05T01:33:00.046Z,993.79
2019-03-05T01:37:56.979Z,993.67
2019-03-05T01:42:52.600Z,993.73
2019-03-05T01:47:49.316Z,993.71
2019-03-05T01:52:45.517Z,993.79
2019-03-05T01:57:41.974Z,993.74
2019-03-05T02:02:37.355Z,993.85
2019-03-05T02:07:34.022Z,993.94
2019-03-05T02:12:29.472Z,993.99
2019-03-05T02:17:26.242Z,993.97
2019-03-05T02:22:21.608Z,993.98
2019-03-05T02:27:17.267Z,993.89
2019-03-05T02:32:13.756Z,993.85
2019-03-05T02:37:09.722Z,993.98
2019-03-05T02:42:05.670Z,993.95
2019-03-05T02:47:01.307Z,993.86
2019-03-05T02:51:57.046Z,993.82
2019-03-05T02:56:52.903Z,993.85
2019-03-05T03:01:48.398Z,994.01
2019-03-05T03:06:44.238Z,994.18
2019-03-05T03:11:40.220Z,994.06
2019-03-05T03:16:35.721Z,994.07
2019-03-05T03:21:31.971Z,994.28
2019-03-05T03:26:27.513Z,994.15
2019-03-05T03:31:23.064Z,994.27
2019-03-05T03:36:18.924Z,994.42
2019-03-05T03:41:14.396Z,994.48
2019-03-05T03:46:09.688Z,994.54
2019-03-05T03:51:05.384Z,994.51
2019-03-05T03:56:01.955Z,994.49
2019-03-05T04:00:57.649Z,994.54
2019-03-05T04:05:53.854Z,994.51
2019-03-05T04:10:49.429Z,994.51
2019-03-05T04:15:45.242Z,994.56
2019-03-05T04:20:41.759Z,994.66
2019-03-05T04:25:37.475Z,994.52
2019-03-05T04:30:32.924Z,994.67
2019-03-05T04:35:28.582Z,994.72
2019-03-05T04:40:24.207Z,994.74
2019-03-05T04:45:19.758Z,994.65
2019-03-05T04:50:15.489Z,994.77
2019-03-05T04:55:11.259Z,994.87
2019-03-05T05:00:07.000Z,994.79
2019-03-05T05:05:02.972Z,994.78
2019-03-05T05:09:59.420Z,994.87
2019-03-05T05:14:54.954Z,994.83
2019-03-05T05:19:50.488Z,994.76
2019-03-05T05:24:46.961Z,994.93
2019-03-05T05:29:42.739Z,994.89
2019-03-05T05:34:39.618Z,994.76
2019-03-05T05:39:35.992Z,994.82
2019-03-05T05:44:32.234Z,994.84
2019-03-05T05:49:28.288Z,994.91
2019-03-05T05:54:23.593Z,994.84
2019-03-05T05:59:19.408Z,994.85
2019-03-05T06:04:15.231Z,994.95
2019-03-05T06:09:12.100Z,994.90
2019-03-05T06:14:08.480Z,994.87
2019-03-05T06:19:04.224Z,994.95
2019-03-05T06:24:00.858Z,995.08
2019-03-05T06:28:55.918Z,995.03
2019-03-05T06:33:52.405Z,995.23
2019-03-05T06:38:48.049Z,995.38
2019-03-05T06:43:43.691Z,995.29
2019-03-05T06:48:39.399Z,995.28
2019-03-05T06:53:35.313Z,995.20
2019-03-05T06:58:31.098Z,995.37
2019-03-05T07:03:27.728Z,995.41
2019-03-05T07:08:23.176Z,995.53
2019-03-05T07:13:19.786Z,995.56
2019-03-05T07:18:15.490Z,995.64
2019-03-05T07:23:11.300Z,995.64
2019-03-05T07:28:07.195Z,995.66
2019-03-05T07:33:02.805Z,995.65
2019-03-05T07:37:58.663Z,995.66
2019-03-05T07:42:54.513Z,995.74
2019-03-05T07:47:51.116Z,995.84
2019-03-05T07:52:46.941Z,995.89
2019-03-05T07:57:42.645Z,995.93
2019-03-05T08:02:38.704Z,996.02
2019-03-05T08:07:35.938Z,996.04
2019-03-05T08:12:31.762Z,996.19
2019-03-05T08:17:27.852Z,996.27
2019-03-05T08:22:24.279Z,996.33
2019-03-05T08:27:20.062Z,996.35
2019-03-05T08:32:15.676Z,996.42
2019-03-05T08:37:13.367Z,996.50
2019-03-05T08:42:08.369Z,996.59
2019-03-05T08:47:03.951Z,996.76
2019-03-05T08:51:59.711Z,996.74
2019-03-05T08:56:55.281Z,996.89
2019-03-05T09:01:51.805Z,996.99
2019-03-05T09:06:47.750Z,996.97
2019-03-05T09:11:44.499Z,997.00
2019-03-05T09:16:41.577Z,997.08
2019-03-05T09:21:38.916Z,997.06
2019-03-05T09:26:34.342Z,997.16
2019-03-05T09:31:30.170Z,997.23
2019-03-05T09:36:25.893Z,997.24
2019-03-05T09:41:22.284Z,997.37
2019-03-05T09:46:17.893Z,997.38
2019-03-05T09:51:13.653Z,997.21
2019-03-05T09:56:09.671Z,997.47
2019-03-05T10:01:05.352Z,997.48
2019-03-05T10:06:00.670Z,997.45
2019-03-05T10:10:56.775Z,997.58
2019-03-05T10:15:53.677Z,997.56
2019-03-05T10:20:50.524Z,997.75
2019-03-05T10:25:46.503Z,997.80
2019-03-05T10:30:43.430Z,997.68
2019-03-05T10:35:38.890Z,997.68
2019-03-05T10:40:34.103Z,997.82
2019-03-05T10:45:30.973Z,997.79
2019-03-05T10:50:27.084Z,997.87
2019-03-05T10:55:26.386Z,997.88
2019-03-05T11:00:23.120Z,998.01
2019-03-05T11:05:20.145Z,997.97
2019-03-05T11:10:16.862Z,998.02
2019-03-05T11:15:12.984Z,998.05
2019-03-05T11:20:09.423Z,998.12
2019-03-05T11:25:05.279Z,998.15
2019-03-05T11:30:01.341Z,998.20
2019-03-05T11:34:57.212Z,998.26
2019-03-05T11:39:55.369Z,998.24
2019-03-05T11:45:03.828Z,998.29
2019-03-05T11:49:50.438Z,998.33
2019-03-05T11:54:46.153Z,998.47
2019-03-05T11:59:41.915Z,998.56
2019-03-05T12:04:37.156Z,998.62
2019-03-05T12:09:33.846Z,998.69
2019-03-05T12:14:29.372Z,998.68
2019-03-05T12:19:25.446Z,998.88
2019-03-05T12:24:24.218Z,998.77
2019-03-05T12:29:20.227Z,998.79
2019-03-05T12:34:16.901Z,998.79
2019-03-05T12:39:12.947Z,998.86
2019-03-05T12:44:09.090Z,998.89
2019-03-05T12:49:04.825Z,998.93
2019-03-05T12:54:01.290Z,998.96
2019-03-05T12:58:56.817Z,998.97
2019-03-05T13:03:53.640Z,999.03
2019-03-05T13:08:50.091Z,999.01
2019-03-05T13:13:47.605Z,999.06
2019-03-05T13:18:45.365Z,999.01
2019-03-05T13:23:42.264Z,999.04
2019-03-05T13:28:40.629Z,999.09
2019-03-05T13:33:37.958Z,999.12
2019-03-05T13:38:34.717Z,999.04
2019-03-05T13:43:31.914Z,999.09
2019-03-05T13:48:27.269Z,999.20
2019-03-05T13:53:23.949Z,999.35
2019-03-05T13:58:19.875Z,999.44
2019-03-05T14:03:16.070Z,999.40
2019-03-05T14:08:11.788Z,999.37
2019-03-05T14:13:08.474Z,999.37
2019-03-05T14:18:03.824Z,999.31
2019-03-05T14:22:59.425Z,999.41
2019-03-05T14:27:55.291Z,999.36
2019-03-05T14:32:52.306Z,999.45
2019-03-05T14:37:48.375Z,999.59
2019-03-05T14:42:43.978Z,999.52
2019-03-05T14:47:40.751Z,999.49
2019-03-05T14:52:36.264Z,999.66
2019-03-05T14:57:32.096Z,999.61
2019-03-05T15:02:28.994Z,999.65
2019-03-05T15:07:24.474Z,999.64
2019-03-05T15:12:21.392Z,999.56
2019-03-05T15:17:16.887Z,999.74
2019-03-05T15:22:12.601Z,999.70
2019-03-05T15:27:08.239Z,999.79
2019-03-05T15:32:03.977Z,999.88
2019-03-05T15:36:59.786Z,999.82
2019-03-05T15:41:56.123Z,999.89
2019-03-05T15:46:52.910Z,1000.02
2019-03-05T15:51:48.342Z,999.98
2019-03-05T15:56:44.740Z,1000.06
2019-03-05T16:01:40.246Z,1000.00
2019-03-05T16:06:35.972Z,1000.02
2019-03-05T16:11:34.026Z,1000.10
2019-03-05T16:16:30.837Z,1000.14
2019-03-05T16:21:26.171Z,1000.07
2019-03-05T16:26:23.775Z,1000.17
2019-03-05T16:31:21.726Z,1000.23
2019-03-05T16:36:17.660Z,1000.30
2019-03-05T16:41:13.268Z,1000.34
2019-03-05T16:46:08.972Z,1000.40
2019-03-05T16:51:05.535Z,1000.40
2019-03-05T16:56:00.801Z,1000.52
2019-03-05T17:00:56.395Z,1000.60
2019-03-05T17:05:51.980Z,1000.70
2019-03-05T17:10:47.540Z,1000.76
2019-03-05T17:15:43.334Z,1000.78
2019-03-05T17:20:38.721Z,1001.00
2019-03-05T17:25:34.821Z,1001.04
2019-03-05T17:30:31.384Z,1001.12
2019-03-05T17:35:26.913Z,1001.23
2019-03-05T17:40:23.425Z,1001.21
2019-03-05T17:45:18.878Z,1001.36
2019-03-05T17:50:15.532Z,1001.34
2019-03-05T17:55:11.199Z,1001.46
2019-03-05T18:00:07.920Z,1001.44
2019-03-05T18:05:04.182Z,1001.51
2019-03-05T18:10:01.768Z,1001.60
2019-03-05T18:14:57.156Z,1001.66
2019-03-05T18:19:52.657Z,1001.82
2019-03-05T18:24:48.850Z,1001.80
2019-03-05T18:29:44.700Z,1001.80
2019-03-05T18:34:41.539Z,1001.90
2019-03-05T18:39:38.851Z,1001.83
2019-03-05T18:44:34.914Z,1001.95
2019-03-05T18:49:30.229Z,1001.93
2019-03-05T18:54:25.989Z,1001.87
2019-03-05T18:59:21.664Z,1001.88
2019-03-05T19:04:17.406Z,1001.98
2019-03-05T19:09:13.144Z,1002.11
2019-03-05T19:14:08.532Z,1002.07
2019-03-05T19:19:04.808Z,1002.12
2019-03-05T19:24:00.825Z,1002.11
2019-03-05T19:28:57.739Z,1002.14
2019-03-05T19:33:53.616Z,1002.27
2019-03-05T19:38:50.488Z,1002.34
2019-03-05T19:43:45.736Z,1002.33
2019-03-05T19:48:42.424Z,1002.29
2019-03-05T19:53:37.912Z,1002.35
2019-03-05T19:58:33.786Z,1002.36
2019-03-05T20:03:29.465Z,1002.32
2019-03-05T20:08:25.177Z,1002.53
2019-03-05T20:13:20.837Z,1002.49
2019-03-05T20:18:16.425Z,1002.50
2019-03-05T20:23:13.202Z,1002.53
2019-03-05T20:28:08.710Z,1002.55
2019-03-05T20:33:04.091Z,1002.54
2019-03-05T20:38:00.027Z,1002.77
2019-03-05T20:42:55.696Z,1002.64
2019-03-05T20:47:51.460Z,1002.64
2019-03-05T20:52:48.156Z,1002.65
2019-03-05T20:57:44.265Z,1002.68
2019-03-05T21:02:40.006Z,1002.70
2019-03-05T21:07:35.703Z,1002.70
2019-03-05T21:12:30.943Z,1002.72
2019-03-05T21:17:26.683Z,1002.70
2019-03-05T21:22:22.307Z,1002.75
2019-03-05T21:27:18.924Z,1002.68
2019-03-05T21:32:14.390Z,1002.60
2019-03-05T21:37:10.011Z,1002.74
2019-03-05T21:42:05.812Z,1002.71
2019-03-05T21:47:01.462Z,1002.80
2019-03-05T21:51:57.082Z,1002.79
2019-03-05T21:56:53.266Z,1002.84
2019-03-05T22:01:48.932Z,1002.85
2019-03-05T22:06:44.847Z,1002.82
2019-03-05T22:11:41.441Z,1002.87
2019-03-05T22:16:36.778Z,1002.99
2019-03-05T22:21:32.395Z,1003.02
2019-03-05T22:26:28.035Z,1002.99
2019-03-05T22:31:23.660Z,1003.06
2019-03-05T22:36:20.233Z,1003.02
2019-03-05T22:41:16.558Z,1002.99
2019-03-05T22:46:11.945Z,1002.92
2019-03-05T22:51:07.618Z,1002.91
2019-03-05T22:56:03.386Z,1002.90
2019-03-05T23:01:00.121Z,1002.96
2019-03-05T23:05:55.526Z,1003.00
2019-03-05T23:10:51.096Z,1002.96
2019-03-05T23:15:46.613Z,1003.01
2019-03-05T23:20:43.462Z,1002.86
2019-03-05T23:25:39.862Z,1002.96
2019-03-05T23:30:36.115Z,1002.86
2019-03-05T23:35:31.701Z,1002.75
2019-03-05T23:40:27.968Z,1002.83
2019-03-05T23:45:23.604Z,1002.77
2019-03-05T23:50:19.697Z,1002.69
2019-03-05T23:55:15.055Z,1002.66
